createdAt,value
2023-03-18T00:00:23.734Z,100259.00
2023-03-18T00:02:50.375Z,100254.22
2023-03-18T00:05:17.365Z,100253.88
2023-03-18T00:07:44.024Z,100251.88
2023-03-18T00:10:12.144Z,100250.72
2023-03-18T00:12:39.704Z,100252.38
2023-03-18T00:15:07.914Z,100257.16
2023-03-18T00:17:35.314Z,100261.66
2023-03-18T00:20:06.209Z,100255.19
2023-03-18T00:22:36.712Z,100264.47
2023-03-18T00:25:05.356Z,100251.53
2023-03-18T00:27:32.102Z,100249.56
2023-03-18T00:29:59.195Z,100248.72
2023-03-18T00:32:26.869Z,100252.38
2023-03-18T00:34:54.062Z,100249.06
2023-03-18T00:37:30.658Z,100249.88
2023-03-18T00:40:06.409Z,100247.44
2023-03-18T00:42:39.280Z,100245.75
2023-03-18T00:45:07.714Z,100243.28
2023-03-18T00:47:34.657Z,100255.38
2023-03-18T00:50:01.782Z,100243.63
2023-03-18T00:52:30.081Z,100256.03
2023-03-18T00:54:58.485Z,100254.88
2023-03-18T00:57:25.500Z,100251.25
2023-03-18T00:59:52.272Z,100254.38
2023-03-18T01:02:19.317Z,100257.53
2023-03-18T01:04:45.931Z,100253.88
2023-03-18T01:07:13.602Z,100255.06
2023-03-18T01:09:40.993Z,100256.22
2023-03-18T01:12:08.966Z,100254.09
2023-03-18T01:14:36.596Z,100254.09
2023-03-18T01:17:03.678Z,100251.09
2023-03-18T01:19:30.656Z,100247.47
2023-03-18T01:21:57.422Z,100249.78
2023-03-18T01:24:24.195Z,100247.31
2023-03-18T01:26:50.855Z,100238.41
2023-03-18T01:29:18.279Z,100240.38
2023-03-18T01:31:45.810Z,100236.56
2023-03-18T01:34:12.605Z,100245.31
2023-03-18T01:36:39.282Z,100239.69
2023-03-18T01:39:06.646Z,100235.56
2023-03-18T01:41:33.424Z,100233.91
2023-03-18T01:44:02.345Z,100226.97
2023-03-18T01:46:39.599Z,100226.50
2023-03-18T01:49:14.228Z,100231.97
2023-03-18T01:51:43.785Z,100221.03
2023-03-18T01:54:12.528Z,100220.38
2023-03-18T01:56:40.460Z,100226.84
2023-03-18T01:59:08.095Z,100221.72
2023-03-18T02:01:39.413Z,100219.56
2023-03-18T02:04:07.726Z,100226.19
2023-03-18T02:06:34.839Z,100224.22
2023-03-18T02:09:01.848Z,100222.91
2023-03-18T02:11:30.924Z,100218.09
2023-03-18T02:13:57.854Z,100228.34
2023-03-18T02:16:27.557Z,100219.75
2023-03-18T02:19:00.911Z,100225.22
2023-03-18T02:21:42.835Z,100220.44
2023-03-18T02:24:17.441Z,100219.09
2023-03-18T02:26:57.291Z,100218.25
2023-03-18T02:29:24.940Z,100212.50
2023-03-18T02:31:51.997Z,100211.66
2023-03-18T02:34:19.069Z,100214.00
2023-03-18T02:36:46.327Z,100218.78
2023-03-18T02:39:14.832Z,100211.81
2023-03-18T02:41:41.566Z,100211.34
2023-03-18T02:44:08.979Z,100212.50
2023-03-18T02:46:35.746Z,100208.38
2023-03-18T02:49:03.743Z,100217.28
2023-03-18T02:51:30.894Z,100213.16
2023-03-18T02:54:01.100Z,100210.19
2023-03-18T02:56:27.801Z,100222.25
2023-03-18T02:58:54.452Z,100220.94
2023-03-18T03:01:22.444Z,100218.63
2023-03-18T03:03:49.434Z,100220.63
2023-03-18T03:06:16.221Z,100216.47
2023-03-18T03:08:42.881Z,100217.63
2023-03-18T03:11:10.423Z,100210.69
2023-03-18T03:13:38.249Z,100214.66
2023-03-18T03:16:05.171Z,100217.78
2023-03-18T03:18:31.888Z,100225.88
2023-03-18T03:20:58.570Z,100223.72
2023-03-18T03:23:25.523Z,100220.38
2023-03-18T03:25:52.161Z,100220.75
2023-03-18T03:28:19.061Z,100224.19
2023-03-18T03:30:46.232Z,100227.00
2023-03-18T03:33:13.252Z,100226.84
2023-03-18T03:35:40.266Z,100226.34
2023-03-18T03:38:06.961Z,100231.97
2023-03-18T03:40:34.197Z,100233.13
2023-03-18T03:43:00.984Z,100234.28
2023-03-18T03:45:27.764Z,100227.00
2023-03-18T03:47:54.539Z,100227.34
2023-03-18T03:50:21.876Z,100238.06
2023-03-18T03:52:49.477Z,100231.13
2023-03-18T03:55:18.465Z,100235.94
2023-03-18T03:57:46.028Z,100239.06
2023-03-18T04:00:14.404Z,100237.38
2023-03-18T04:02:43.590Z,100230.47
2023-03-18T04:05:11.764Z,100239.72
2023-03-18T04:07:38.961Z,100242.84
2023-03-18T04:10:06.243Z,100240.34
2023-03-18T04:12:32.883Z,100237.91
2023-03-18T04:14:59.807Z,100239.03
2023-03-18T04:17:26.432Z,100239.34
2023-03-18T04:19:53.189Z,100242.16
2023-03-18T04:22:19.902Z,100240.84
2023-03-18T04:24:46.621Z,100237.22
2023-03-18T04:27:13.373Z,100240.03
2023-03-18T04:29:40.058Z,100233.56
2023-03-18T04:32:06.980Z,100238.72
2023-03-18T04:34:33.853Z,100249.41
2023-03-18T04:37:00.495Z,100241.00
2023-03-18T04:39:27.128Z,100242.16
2023-03-18T04:41:54.859Z,100245.31
2023-03-18T04:44:21.530Z,100246.44
2023-03-18T04:46:48.229Z,100243.13
2023-03-18T04:49:14.953Z,100233.56
2023-03-18T04:51:41.725Z,100235.06
2023-03-18T04:54:08.516Z,100241.81
2023-03-18T04:56:35.450Z,100240.47
2023-03-18T04:59:02.160Z,100242.44
2023-03-18T05:01:28.846Z,100237.66
2023-03-18T05:03:55.529Z,100246.44
2023-03-18T05:06:23.555Z,100239.16
2023-03-18T05:08:50.422Z,100243.09
2023-03-18T05:11:18.075Z,100235.53
2023-03-18T05:13:44.874Z,100237.50
2023-03-18T05:16:11.543Z,100238.63
2023-03-18T05:18:39.227Z,100242.94
2023-03-18T05:21:14.709Z,100230.88
2023-03-18T05:23:41.662Z,100227.25
2023-03-18T05:26:08.331Z,100225.28
2023-03-18T05:28:35.019Z,100221.94
2023-03-18T05:31:11.759Z,100214.72
2023-03-18T05:33:38.413Z,100214.72
2023-03-18T05:36:05.237Z,100215.84
2023-03-18T05:38:31.901Z,100208.56
2023-03-18T05:40:58.504Z,100211.69
2023-03-18T05:43:26.431Z,100220.47
2023-03-18T05:45:53.181Z,100220.47
2023-03-18T05:48:19.998Z,100227.75
2023-03-18T05:50:47.092Z,100223.59
2023-03-18T05:53:16.441Z,100219.94
2023-03-18T05:55:43.492Z,100219.13
2023-03-18T05:58:10.396Z,100218.63
2023-03-18T06:00:37.822Z,100221.44
2023-03-18T06:03:04.809Z,100212.50
2023-03-18T06:05:31.914Z,100220.94
2023-03-18T06:07:59.605Z,100220.94
2023-03-18T06:10:26.664Z,100222.06
2023-03-18T06:12:55.080Z,100232.50
2023-03-18T06:15:22.689Z,100238.41
2023-03-18T06:17:49.380Z,100241.53
2023-03-18T06:20:16.249Z,100244.34
2023-03-18T06:22:43.913Z,100247.50
2023-03-18T06:25:11.070Z,100249.47
2023-03-18T06:27:37.867Z,100247.25
2023-03-18T06:30:05.700Z,100248.09
2023-03-18T06:32:33.185Z,100246.00
2023-03-18T06:35:00.213Z,100244.97
2023-03-18T06:37:26.962Z,100251.09
2023-03-18T06:39:53.793Z,100250.59
2023-03-18T06:42:20.523Z,100250.41
2023-03-18T06:44:50.908Z,100250.72
2023-03-18T06:47:18.577Z,100263.09
2023-03-18T06:49:46.119Z,100257.81
2023-03-18T06:52:13.768Z,100260.63
2023-03-18T06:54:41.217Z,100264.22
2023-03-18T06:57:08.670Z,100258.13
2023-03-18T06:59:35.831Z,100268.00
2023-03-18T07:02:03.303Z,100262.41
2023-03-18T07:04:29.979Z,100268.84
2023-03-18T07:06:57.961Z,100261.91
2023-03-18T07:09:24.822Z,100269.50
2023-03-18T07:11:51.446Z,100279.88
2023-03-18T07:14:18.563Z,100276.25
2023-03-18T07:16:46.148Z,100280.53
2023-03-18T07:19:12.855Z,100282.50
2023-03-18T07:21:40.909Z,100283.34
2023-03-18T07:24:07.575Z,100282.81
2023-03-18T07:26:34.574Z,100281.66
2023-03-18T07:29:01.921Z,100273.56
2023-03-18T07:31:28.680Z,100270.28
2023-03-18T07:33:55.336Z,100280.66
2023-03-18T07:36:21.981Z,100280.66
2023-03-18T07:38:48.628Z,100286.28
2023-03-18T07:41:16.052Z,100291.88
2023-03-18T07:43:43.799Z,100286.59
2023-03-18T07:46:10.547Z,100286.94
2023-03-18T07:48:37.274Z,100296.13
2023-03-18T07:51:04.070Z,100290.53
2023-03-18T07:53:30.850Z,100290.03
2023-03-18T07:55:57.489Z,100292.84
2023-03-18T07:58:24.829Z,100292.84
2023-03-18T08:00:52.718Z,100294.00
2023-03-18T08:03:19.375Z,100298.75
2023-03-18T08:05:46.120Z,100298.28
2023-03-18T08:08:12.832Z,100301.91
2023-03-18T08:10:39.540Z,100303.06
2023-03-18T08:13:06.360Z,100305.84
2023-03-18T08:15:33.202Z,100305.84
2023-03-18T08:18:00.141Z,100301.38
2023-03-18T08:20:27.393Z,100309.81
2023-03-18T08:22:54.057Z,100312.59
2023-03-18T08:25:22.335Z,100302.53
2023-03-18T08:27:49.054Z,100312.59
2023-03-18T08:30:16.660Z,100310.09
2023-03-18T08:32:43.594Z,100305.69
2023-03-18T08:35:11.401Z,100304.00
2023-03-18T08:37:38.103Z,100305.16
2023-03-18T08:40:05.281Z,100305.47
2023-03-18T08:42:31.962Z,100298.22
2023-03-18T08:44:58.843Z,100299.03
2023-03-18T08:47:25.471Z,100295.41
2023-03-18T08:49:52.167Z,100294.91
2023-03-18T08:52:19.327Z,100299.97
2023-03-18T08:54:46.160Z,100294.06
2023-03-18T08:57:12.949Z,100294.38
2023-03-18T08:59:39.574Z,100293.22
2023-03-18T09:02:06.238Z,100291.56
2023-03-18T09:04:33.026Z,100297.19
2023-03-18T09:07:01.712Z,100298.00
2023-03-18T09:09:42.663Z,100298.00
2023-03-18T09:12:09.594Z,100292.41
2023-03-18T09:14:36.457Z,100292.75
2023-03-18T09:17:03.175Z,100296.69
2023-03-18T09:19:29.958Z,100299.50
2023-03-18T09:21:56.637Z,100300.31
2023-03-18T09:24:23.282Z,100304.44
2023-03-18T09:26:49.912Z,100294.06
2023-03-18T09:29:16.665Z,100298.91
2023-03-18T09:31:43.406Z,100297.56
2023-03-18T09:34:13.590Z,100302.06
2023-03-18T09:36:41.553Z,100296.44
2023-03-18T09:39:09.308Z,100295.75
2023-03-18T09:41:39.045Z,100290.13
2023-03-18T09:44:21.917Z,100288.16
2023-03-18T09:46:57.797Z,100297.72
2023-03-18T09:49:33.553Z,100295.41
2023-03-18T09:52:09.957Z,100297.06
2023-03-18T09:54:42.812Z,100293.13
2023-03-18T09:57:13.243Z,100296.22
2023-03-18T09:59:45.882Z,100301.53
2023-03-18T10:02:22.582Z,100300.69
2023-03-18T10:04:53.073Z,100296.75
2023-03-18T10:07:23.081Z,100302.38
2023-03-18T10:09:54.479Z,100301.53
2023-03-18T10:12:32.255Z,100302.06
2023-03-18T10:15:07.032Z,100313.63
2023-03-18T10:17:41.932Z,100314.28
2023-03-18T10:20:31.691Z,100307.19
2023-03-18T10:22:58.339Z,100308.91
2023-03-18T10:25:24.908Z,100307.00
2023-03-18T10:27:57.650Z,100299.47
2023-03-18T10:30:43.125Z,100304.28
2023-03-18T10:33:17.997Z,100304.63
2023-03-18T10:35:50.563Z,100303.31
2023-03-18T10:38:20.016Z,100309.63
2023-03-18T10:40:47.983Z,100305.22
2023-03-18T10:43:17.696Z,100307.91
2023-03-18T10:45:45.982Z,100315.53
2023-03-18T10:48:12.554Z,100314.56
2023-03-18T10:50:51.900Z,100318.22
2023-03-18T10:53:26.269Z,100308.53
2023-03-18T10:55:53.198Z,100307.22
2023-03-18T10:58:20.767Z,100310.22
2023-03-18T11:00:47.467Z,100305.28
2023-03-18T11:03:19.374Z,100304.28
2023-03-18T11:05:46.517Z,100307.75
2023-03-18T11:08:34.731Z,100305.97
2023-03-18T11:11:24.639Z,100312.25
2023-03-18T11:13:56.079Z,100312.09
2023-03-18T11:16:26.297Z,100313.91
2023-03-18T11:18:53.239Z,100311.00
2023-03-18T11:21:20.725Z,100303.56
2023-03-18T11:24:07.792Z,100312.66
2023-03-18T11:26:54.029Z,100302.56
2023-03-18T11:29:26.200Z,100312.19
2023-03-18T11:31:59.917Z,100319.28
2023-03-18T11:34:27.558Z,100311.03
2023-03-18T11:37:01.663Z,100305.72
2023-03-18T11:39:29.764Z,100317.97
2023-03-18T11:41:58.232Z,100310.03
2023-03-18T11:44:29.026Z,100312.19
2023-03-18T11:46:59.177Z,100310.69
2023-03-18T11:49:27.471Z,100307.22
2023-03-18T11:52:03.254Z,100308.53
2023-03-18T11:54:29.952Z,100304.56
2023-03-18T11:57:14.289Z,100312.69
2023-03-18T11:59:43.666Z,100310.34
2023-03-18T12:02:22.944Z,100304.41
2023-03-18T12:05:05.786Z,100309.34
2023-03-18T12:07:43.159Z,100309.34
2023-03-18T12:10:28.624Z,100306.22
2023-03-18T12:13:14.318Z,100317.13
2023-03-18T12:15:41.321Z,100307.88
2023-03-18T12:18:07.981Z,100309.50
2023-03-18T12:20:48.235Z,100307.19
2023-03-18T12:23:33.367Z,100304.06
2023-03-18T12:26:02.849Z,100311.66
2023-03-18T12:28:33.107Z,100308.03
2023-03-18T12:31:17.601Z,100308.03
2023-03-18T12:33:57.212Z,100312.50
2023-03-18T12:36:44.579Z,100312.81
2023-03-18T12:39:20.682Z,100317.63
2023-03-18T12:41:47.281Z,100315.13
2023-03-18T12:44:14.284Z,100312.31
2023-03-18T12:46:49.298Z,100311.84
2023-03-18T12:49:39.198Z,100311.84
2023-03-18T12:52:08.445Z,100310.03
2023-03-18T12:54:45.825Z,100313.16
2023-03-18T12:57:23.830Z,100314.50
2023-03-18T12:59:56.916Z,100324.75
2023-03-18T13:02:39.604Z,100322.09
2023-03-18T13:05:12.704Z,100316.63
2023-03-18T13:07:46.375Z,100317.16
2023-03-18T13:10:23.753Z,100317.44
2023-03-18T13:12:55.769Z,100320.25
2023-03-18T13:15:28.579Z,100324.75
2023-03-18T13:17:57.454Z,100325.25
2023-03-18T13:20:25.703Z,100329.72
2023-03-18T13:22:52.320Z,100329.03
2023-03-18T13:25:21.991Z,100330.69
2023-03-18T13:27:49.817Z,100340.13
2023-03-18T13:30:41.329Z,100335.81
2023-03-18T13:33:11.300Z,100339.13
2023-03-18T13:35:41.046Z,100342.13
2023-03-18T13:38:07.881Z,100336.97
2023-03-18T13:41:03.984Z,100339.44
2023-03-18T13:43:32.376Z,100339.94
2023-03-18T13:45:59.451Z,100336.78
2023-03-18T13:48:37.021Z,100348.19
2023-03-18T13:51:20.876Z,100347.03
2023-03-18T13:53:50.865Z,100355.63
2023-03-18T13:56:34.166Z,100346.53
2023-03-18T13:59:07.861Z,100349.00
2023-03-18T14:01:36.566Z,100352.66
2023-03-18T14:07:22.243Z,100349.81
2023-03-18T14:09:52.242Z,100358.28
2023-03-18T14:12:39.609Z,100347.00
2023-03-18T14:15:09.701Z,100340.56
2023-03-18T14:17:47.981Z,100345.34
2023-03-18T14:20:18.007Z,100348.53
2023-03-18T14:23:07.830Z,100354.16
2023-03-18T14:25:39.727Z,100347.69
2023-03-18T14:28:13.665Z,100350.00
2023-03-18T14:30:43.803Z,100350.84
2023-03-18T14:33:13.211Z,100344.72
2023-03-18T14:35:48.956Z,100349.84
2023-03-18T14:38:20.964Z,100354.81
2023-03-18T14:40:50.569Z,100352.69
2023-03-18T14:43:26.476Z,100356.19
2023-03-18T14:45:56.407Z,100354.84
2023-03-18T14:48:31.164Z,100350.22
2023-03-18T14:51:04.228Z,100350.53
2023-03-18T14:53:30.886Z,100349.22
2023-03-18T14:55:59.148Z,100352.38
2023-03-18T14:58:26.769Z,100355.53
2023-03-18T15:00:55.024Z,100341.13
2023-03-18T15:03:46.295Z,100350.38
2023-03-18T15:06:18.638Z,100348.25
2023-03-18T15:09:01.077Z,100348.56
2023-03-18T15:11:30.680Z,100354.84
2023-03-18T15:14:00.182Z,100353.38
2023-03-18T15:16:31.302Z,100349.72
2023-03-18T15:18:58.329Z,100351.91
2023-03-18T15:21:32.861Z,100351.75
2023-03-18T15:24:03.997Z,100348.38
2023-03-18T15:26:34.172Z,100347.88
2023-03-18T15:29:02.051Z,100342.59
2023-03-18T15:31:30.941Z,100350.53
2023-03-18T15:34:24.432Z,100351.53
2023-03-18T15:36:55.907Z,100340.63
2023-03-18T15:39:32.555Z,100345.75
2023-03-18T15:41:59.989Z,100344.44
2023-03-18T15:44:29.306Z,100348.41
2023-03-18T15:47:03.438Z,100353.88
2023-03-18T15:49:30.043Z,100341.78
2023-03-18T15:52:01.246Z,100347.91
2023-03-18T15:54:30.126Z,100342.28
2023-03-18T15:56:58.258Z,100347.06
2023-03-18T15:59:32.627Z,100349.03
2023-03-18T16:01:59.750Z,100354.19
2023-03-18T16:04:31.021Z,100348.56
2023-03-18T16:06:58.038Z,100353.19
2023-03-18T16:09:25.421Z,100352.22
2023-03-18T16:11:52.298Z,100353.69
2023-03-18T16:14:20.870Z,100357.16
2023-03-18T16:16:48.175Z,100353.19
2023-03-18T16:19:34.162Z,100354.50
2023-03-18T16:22:00.916Z,100357.31
2023-03-18T16:24:27.705Z,100370.53
2023-03-18T16:26:55.113Z,100365.44
2023-03-18T16:29:28.875Z,100359.97
2023-03-18T16:31:56.020Z,100362.78
2023-03-18T16:34:22.829Z,100373.53
2023-03-18T16:36:51.013Z,100365.75
2023-03-18T16:39:22.023Z,100362.44
2023-03-18T16:41:49.769Z,100371.69
2023-03-18T16:44:18.079Z,100373.66
2023-03-18T16:46:55.300Z,100372.34
2023-03-18T16:49:33.460Z,100371.53
2023-03-18T16:52:01.997Z,100380.63
2023-03-18T16:54:29.954Z,100388.41
2023-03-18T16:56:58.472Z,100388.06
2023-03-18T16:59:29.765Z,100388.72
2023-03-18T17:01:56.536Z,100395.00
2023-03-18T17:04:28.843Z,100399.63
2023-03-18T17:06:56.316Z,100390.88
2023-03-18T17:09:23.691Z,100398.66
2023-03-18T17:11:51.380Z,100411.88
2023-03-18T17:14:38.806Z,100406.22
2023-03-18T17:17:14.833Z,100418.13
2023-03-18T17:19:41.719Z,100417.44
2023-03-18T17:22:28.571Z,100424.53
2023-03-18T17:24:55.218Z,100428.00
2023-03-18T17:27:23.890Z,100430.63
2023-03-18T17:29:50.695Z,100423.97
2023-03-18T17:32:19.691Z,100426.63
2023-03-18T17:34:47.423Z,100438.19
2023-03-18T17:37:14.157Z,100441.66
2023-03-18T17:39:41.092Z,100444.75
2023-03-18T17:42:23.161Z,100438.16
2023-03-18T17:44:49.979Z,100444.38
2023-03-18T17:47:16.595Z,100444.22
2023-03-18T17:49:43.230Z,100458.59
2023-03-18T17:52:11.425Z,100459.41
2023-03-18T17:54:38.173Z,100459.91
2023-03-18T17:57:05.810Z,100457.63
2023-03-18T17:59:33.445Z,100462.59
2023-03-18T18:02:00.218Z,100461.44
2023-03-18T18:04:27.641Z,100472.19
2023-03-18T18:06:54.591Z,100461.84
2023-03-18T18:09:21.977Z,100479.91
2023-03-18T18:11:50.936Z,100481.09
2023-03-18T18:14:26.222Z,100491.06
2023-03-18T18:16:56.927Z,100492.53
2023-03-18T18:19:23.686Z,100501.66
2023-03-18T18:21:50.745Z,100496.19
2023-03-18T18:24:25.543Z,100496.06
2023-03-18T18:26:52.304Z,100499.88
2023-03-18T18:29:20.821Z,100504.50
2023-03-18T18:31:48.154Z,100500.56
2023-03-18T18:34:15.608Z,100504.38
2023-03-18T18:36:42.948Z,100500.09
2023-03-18T18:39:10.044Z,100499.75
2023-03-18T18:41:36.739Z,100503.06
2023-03-18T18:44:03.400Z,100499.91
2023-03-18T18:46:31.138Z,100504.06
2023-03-18T18:48:58.046Z,100500.59
2023-03-18T18:51:25.577Z,100498.59
2023-03-18T18:53:53.746Z,100504.75
2023-03-18T18:56:34.250Z,100505.56
2023-03-18T18:59:01.850Z,100508.03
2023-03-18T19:01:28.520Z,100518.47
2023-03-18T19:03:55.721Z,100513.66
2023-03-18T19:06:27.678Z,100511.69
2023-03-18T19:08:54.680Z,100512.84
2023-03-18T19:11:24.824Z,100514.81
2023-03-18T19:13:52.038Z,100526.06
2023-03-18T19:16:32.746Z,100533.69
2023-03-18T19:19:00.094Z,100528.88
2023-03-18T19:21:27.595Z,100526.41
2023-03-18T19:23:55.632Z,100534.34
2023-03-18T19:26:22.361Z,100539.13
2023-03-18T19:28:57.574Z,100543.91
2023-03-18T19:31:27.187Z,100548.22
2023-03-18T19:33:54.145Z,100550.88
2023-03-18T19:36:23.490Z,100554.00
2023-03-18T19:38:51.063Z,100555.97
2023-03-18T19:41:17.817Z,100560.59
2023-03-18T19:43:44.656Z,100563.25
2023-03-18T19:46:19.155Z,100562.72
2023-03-18T19:48:46.130Z,100567.03
2023-03-18T19:51:15.796Z,100565.19
2023-03-18T19:53:44.073Z,100563.56
2023-03-18T19:56:29.901Z,100571.19
2023-03-18T19:58:58.492Z,100578.31
2023-03-18T20:01:27.589Z,100573.13
2023-03-18T20:03:57.319Z,100586.19
2023-03-18T20:06:24.345Z,100588.34
2023-03-18T20:08:51.481Z,100587.00
2023-03-18T20:11:21.138Z,100587.66
2023-03-18T20:13:48.081Z,100584.31
2023-03-18T20:16:15.660Z,100583.31
2023-03-18T20:18:42.970Z,100580.00
2023-03-18T20:21:23.933Z,100585.94
2023-03-18T20:23:51.856Z,100596.19
2023-03-18T20:26:18.661Z,100597.63
2023-03-18T20:28:45.934Z,100603.25
2023-03-18T20:31:19.008Z,100609.00
2023-03-18T20:33:48.166Z,100607.69
2023-03-18T20:36:16.463Z,100609.16
2023-03-18T20:38:44.995Z,100610.63
2023-03-18T20:41:16.782Z,100607.31
2023-03-18T20:43:44.358Z,100618.88
2023-03-18T20:46:15.283Z,100617.19
2023-03-18T20:48:42.335Z,100623.75
2023-03-18T20:51:19.927Z,100628.53
2023-03-18T20:53:48.514Z,100627.22
2023-03-18T20:56:16.461Z,100628.66
2023-03-18T20:58:43.282Z,100634.63
2023-03-18T21:01:18.926Z,100640.25
2023-03-18T21:03:46.273Z,100641.19
2023-03-18T21:06:14.724Z,100655.53
2023-03-18T21:08:41.729Z,100642.66
2023-03-18T21:11:26.307Z,100642.47
2023-03-18T21:13:53.464Z,100639.13
2023-03-18T21:16:21.436Z,100642.78
2023-03-18T21:18:49.914Z,100639.13
2023-03-18T21:21:22.982Z,100643.41
2023-03-18T21:23:49.766Z,100642.88
2023-03-18T21:26:17.080Z,100645.50
2023-03-18T21:28:44.040Z,100652.25
2023-03-18T21:31:28.276Z,100646.66
2023-03-18T21:33:57.616Z,100647.81
2023-03-18T21:36:24.465Z,100653.63
2023-03-18T21:38:51.179Z,100654.13
2023-03-18T21:41:24.525Z,100658.94
2023-03-18T21:43:51.442Z,100655.47
2023-03-18T21:46:19.751Z,100662.31
2023-03-18T21:48:46.755Z,100661.53
2023-03-18T21:51:35.497Z,100660.56
2023-03-18T21:54:04.240Z,100655.38
2023-03-18T21:56:30.918Z,100662.56
2023-03-18T21:58:57.814Z,100659.59
2023-03-18T22:01:27.480Z,100663.94
2023-03-18T22:03:54.586Z,100667.75
2023-03-18T22:06:22.270Z,100663.50
2023-03-18T22:08:49.033Z,100662.53
2023-03-18T22:11:17.539Z,100663.03
2023-03-18T22:13:44.710Z,100666.34
2023-03-18T22:16:15.638Z,100670.47
2023-03-18T22:18:43.306Z,100673.81
2023-03-18T22:21:17.085Z,100677.47
2023-03-18T22:23:44.667Z,100676.81
2023-03-18T22:26:13.957Z,100662.44
2023-03-18T22:28:40.849Z,100664.28
2023-03-18T22:31:20.595Z,100660.28
2023-03-18T22:33:47.953Z,100672.06
2023-03-18T22:36:15.871Z,100667.75
2023-03-18T22:38:42.931Z,100670.25
2023-03-18T22:41:17.624Z,100666.31
2023-03-18T22:43:44.437Z,100669.59
2023-03-18T22:46:11.958Z,100668.47
2023-03-18T22:48:38.790Z,100666.47
2023-03-18T22:51:15.115Z,100674.59
2023-03-18T22:53:42.740Z,100670.97
2023-03-18T22:56:13.432Z,100665.34
2023-03-18T22:58:40.091Z,100667.31
2023-03-18T23:01:14.455Z,100669.81
2023-03-18T23:03:44.067Z,100671.44
2023-03-18T23:06:14.120Z,100680.22
2023-03-18T23:08:40.777Z,100671.44
2023-03-18T23:11:13.463Z,100680.22
2023-03-18T23:13:41.954Z,100674.59
2023-03-18T23:16:11.794Z,100673.78
2023-03-18T23:18:38.554Z,100670.13
2023-03-18T23:21:09.795Z,100677.72
2023-03-18T23:23:36.442Z,100673.25
2023-03-18T23:26:03.521Z,100680.06
2023-03-18T23:28:30.207Z,100682.88
2023-03-18T23:30:56.916Z,100677.25
2023-03-18T23:33:23.612Z,100685.16
2023-03-18T23:35:50.332Z,100684.00
2023-03-18T23:38:17.097Z,100699.22
2023-03-18T23:40:44.674Z,100704.84
2023-03-18T23:43:11.397Z,100706.31
2023-03-18T23:45:39.004Z,100709.44
2023-03-18T23:48:06.378Z,100706.63
2023-03-18T23:50:33.522Z,100703.66
2023-03-18T23:53:00.684Z,100709.41
2023-03-18T23:55:34.453Z,100713.19
2023-03-18T23:58:01.739Z,100709.84
